sensor_id;sensor_type;location;lat;lon;timestamp;P1;durP1;ratioP1;P2;durP2;ratioP2
24439;SDS011;12618;54.386;18.394;2022-10-16T00:02:14;61.95;;;37.45;;
24439;SDS011;12618;54.386;18.394;2022-10-16T00:04:44;60.43;;;36.90;;
24439;SDS011;12618;54.386;18.394;2022-10-16T00:07:15;64.92;;;38.90;;
24439;SDS011;12618;54.386;18.394;2022-10-16T00:09:45;64.20;;;38.25;;
24439;SDS011;12618;54.386;18.394;2022-10-16T00:12:16;59.45;;;35.78;;
24439;SDS011;12618;54.386;18.394;2022-10-16T00:14:47;57.88;;;35.20;;
24439;SDS011;12618;54.386;18.394;2022-10-16T00:17:17;62.78;;;36.60;;
24439;SDS011;12618;54.386;18.394;2022-10-16T00:19:47;61.42;;;35.45;;
24439;SDS011;12618;54.386;18.394;2022-10-16T00:22:18;52.05;;;32.50;;
24439;SDS011;12618;54.386;18.394;2022-10-16T00:24:49;61.95;;;35.17;;
24439;SDS011;12618;54.386;18.394;2022-10-16T00:27:19;58.13;;;34.53;;
24439;SDS011;12618;54.386;18.394;2022-10-16T00:29:50;59.33;;;35.13;;
24439;SDS011;12618;54.386;18.394;2022-10-16T00:32:22;57.70;;;34.20;;
24439;SDS011;12618;54.386;18.394;2022-10-16T00:34:52;57.55;;;34.10;;
24439;SDS011;12618;54.386;18.394;2022-10-16T00:37:25;58.25;;;34.03;;
24439;SDS011;12618;54.386;18.394;2022-10-16T00:39:55;57.55;;;33.45;;
24439;SDS011;12618;54.386;18.394;2022-10-16T00:42:26;57.03;;;33.33;;
24439;SDS011;12618;54.386;18.394;2022-10-16T00:45:00;56.73;;;32.08;;
24439;SDS011;12618;54.386;18.394;2022-10-16T00:47:36;52.58;;;32.70;;
24439;SDS011;12618;54.386;18.394;2022-10-16T00:50:08;53.38;;;32.17;;
24439;SDS011;12618;54.386;18.394;2022-10-16T00:52:39;53.17;;;30.08;;
24439;SDS011;12618;54.386;18.394;2022-10-16T00:55:12;49.98;;;29.65;;
24439;SDS011;12618;54.386;18.394;2022-10-16T00:57:42;47.70;;;29.02;;
24439;SDS011;12618;54.386;18.394;2022-10-16T01:00:15;46.75;;;28.92;;
24439;SDS011;12618;54.386;18.394;2022-10-16T01:02:57;48.60;;;28.95;;
24439;SDS011;12618;54.386;18.394;2022-10-16T01:05:30;47.13;;;29.30;;
24439;SDS011;12618;54.386;18.394;2022-10-16T01:13:07;44.77;;;27.35;;
24439;SDS011;12618;54.386;18.394;2022-10-16T01:15:44;44.03;;;26.97;;
24439;SDS011;12618;54.386;18.394;2022-10-16T01:18:16;43.35;;;27.40;;
24439;SDS011;12618;54.386;18.394;2022-10-16T01:20:51;44.05;;;27.87;;
24439;SDS011;12618;54.386;18.394;2022-10-16T01:28:47;41.15;;;27.45;;
24439;SDS011;12618;54.386;18.394;2022-10-16T01:31:18;40.33;;;27.00;;
24439;SDS011;12618;54.386;18.394;2022-10-16T01:34:01;42.35;;;28.25;;
24439;SDS011;12618;54.386;18.394;2022-10-16T01:36:35;38.02;;;25.80;;
24439;SDS011;12618;54.386;18.394;2022-10-16T01:39:03;40.17;;;26.77;;
24439;SDS011;12618;54.386;18.394;2022-10-16T01:41:44;39.33;;;26.95;;
24439;SDS011;12618;54.386;18.394;2022-10-16T01:44:19;38.13;;;27.48;;
24439;SDS011;12618;54.386;18.394;2022-10-16T01:46:51;37.80;;;25.32;;
24439;SDS011;12618;54.386;18.394;2022-10-16T01:49:23;42.90;;;26.68;;
24439;SDS011;12618;54.386;18.394;2022-10-16T01:51:55;36.38;;;25.90;;
24439;SDS011;12618;54.386;18.394;2022-10-16T01:54:27;38.98;;;26.17;;
24439;SDS011;12618;54.386;18.394;2022-10-16T01:56:58;37.93;;;24.45;;
24439;SDS011;12618;54.386;18.394;2022-10-16T01:59:30;34.00;;;23.67;;
24439;SDS011;12618;54.386;18.394;2022-10-16T02:02:04;32.25;;;23.10;;
24439;SDS011;12618;54.386;18.394;2022-10-16T02:04:36;32.53;;;23.30;;
24439;SDS011;12618;54.386;18.394;2022-10-16T02:07:06;31.85;;;22.95;;
24439;SDS011;12618;54.386;18.394;2022-10-16T02:09:37;34.92;;;24.05;;
24439;SDS011;12618;54.386;18.394;2022-10-16T02:12:13;34.00;;;23.38;;
24439;SDS011;12618;54.386;18.394;2022-10-16T02:14:40;33.15;;;23.45;;
24439;SDS011;12618;54.386;18.394;2022-10-16T02:17:12;30.88;;;22.98;;
24439;SDS011;12618;54.386;18.394;2022-10-16T02:19:43;30.92;;;22.13;;
24439;SDS011;12618;54.386;18.394;2022-10-16T02:22:16;30.35;;;21.80;;
24439;SDS011;12618;54.386;18.394;2022-10-16T02:24:50;29.80;;;21.62;;
24439;SDS011;12618;54.386;18.394;2022-10-16T02:30:14;33.40;;;23.90;;
24439;SDS011;12618;54.386;18.394;2022-10-16T02:32:43;32.95;;;23.77;;
24439;SDS011;12618;54.386;18.394;2022-10-16T02:35:15;32.28;;;23.00;;
24439;SDS011;12618;54.386;18.394;2022-10-16T02:37:48;32.55;;;23.35;;
24439;SDS011;12618;54.386;18.394;2022-10-16T02:40:19;31.52;;;22.58;;
24439;SDS011;12618;54.386;18.394;2022-10-16T02:42:51;33.18;;;23.60;;
24439;SDS011;12618;54.386;18.394;2022-10-16T02:45:22;31.60;;;24.12;;
24439;SDS011;12618;54.386;18.394;2022-10-16T02:47:53;35.33;;;25.40;;
24439;SDS011;12618;54.386;18.394;2022-10-16T02:50:23;32.85;;;24.23;;
24439;SDS011;12618;54.386;18.394;2022-10-16T02:52:59;32.40;;;24.15;;
24439;SDS011;12618;54.386;18.394;2022-10-16T02:55:27;31.37;;;23.38;;
24439;SDS011;12618;54.386;18.394;2022-10-16T02:57:57;31.35;;;23.83;;
24439;SDS011;12618;54.386;18.394;2022-10-16T03:00:28;31.10;;;22.65;;
24439;SDS011;12618;54.386;18.394;2022-10-16T03:02:58;34.35;;;23.65;;
24439;SDS011;12618;54.386;18.394;2022-10-16T03:05:29;29.07;;;22.37;;
24439;SDS011;12618;54.386;18.394;2022-10-16T03:07:59;30.12;;;23.35;;
24439;SDS011;12618;54.386;18.394;2022-10-16T03:10:30;28.38;;;21.55;;
24439;SDS011;12618;54.386;18.394;2022-10-16T03:13:01;29.27;;;22.07;;
24439;SDS011;12618;54.386;18.394;2022-10-16T03:15:34;28.38;;;21.68;;
24439;SDS011;12618;54.386;18.394;2022-10-16T03:18:05;33.53;;;23.65;;
24439;SDS011;12618;54.386;18.394;2022-10-16T03:20:35;31.40;;;23.80;;
24439;SDS011;12618;54.386;18.394;2022-10-16T03:23:06;32.67;;;24.07;;
24439;SDS011;12618;54.386;18.394;2022-10-16T03:25:38;31.65;;;23.62;;
24439;SDS011;12618;54.386;18.394;2022-10-16T03:28:08;32.95;;;23.27;;
24439;SDS011;12618;54.386;18.394;2022-10-16T03:30:39;29.70;;;22.82;;
24439;SDS011;12618;54.386;18.394;2022-10-16T03:33:09;31.77;;;23.60;;
24439;SDS011;12618;54.386;18.394;2022-10-16T03:35:40;29.65;;;22.48;;
24439;SDS011;12618;54.386;18.394;2022-10-16T03:38:10;33.20;;;23.45;;
24439;SDS011;12618;54.386;18.394;2022-10-16T03:40:40;27.42;;;21.40;;
24439;SDS011;12618;54.386;18.394;2022-10-16T03:43:11;29.95;;;22.75;;
24439;SDS011;12618;54.386;18.394;2022-10-16T03:45:42;30.02;;;22.82;;
24439;SDS011;12618;54.386;18.394;2022-10-16T03:48:13;31.17;;;23.40;;
24439;SDS011;12618;54.386;18.394;2022-10-16T03:50:44;34.85;;;24.72;;
24439;SDS011;12618;54.386;18.394;2022-10-16T03:53:14;32.10;;;23.85;;
24439;SDS011;12618;54.386;18.394;2022-10-16T03:55:45;32.13;;;23.38;;
24439;SDS011;12618;54.386;18.394;2022-10-16T03:58:15;37.73;;;26.02;;
24439;SDS011;12618;54.386;18.394;2022-10-16T04:00:46;34.08;;;24.90;;
24439;SDS011;12618;54.386;18.394;2022-10-16T04:03:17;35.90;;;27.10;;
24439;SDS011;12618;54.386;18.394;2022-10-16T04:05:49;33.05;;;24.12;;
24439;SDS011;12618;54.386;18.394;2022-10-16T04:08:20;33.90;;;25.30;;
24439;SDS011;12618;54.386;18.394;2022-10-16T04:10:50;34.53;;;24.30;;
24439;SDS011;12618;54.386;18.394;2022-10-16T04:13:21;37.50;;;25.90;;
24439;SDS011;12618;54.386;18.394;2022-10-16T04:15:52;36.17;;;25.77;;
24439;SDS011;12618;54.386;18.394;2022-10-16T04:18:22;34.00;;;26.00;;
24439;SDS011;12618;54.386;18.394;2022-10-16T04:20:53;33.50;;;26.07;;
24439;SDS011;12618;54.386;18.394;2022-10-16T04:23:24;34.90;;;24.90;;
24439;SDS011;12618;54.386;18.394;2022-10-16T04:25:54;32.83;;;24.15;;
24439;SDS011;12618;54.386;18.394;2022-10-16T04:28:25;37.65;;;26.55;;
24439;SDS011;12618;54.386;18.394;2022-10-16T04:30:56;32.48;;;24.23;;
24439;SDS011;12618;54.386;18.394;2022-10-16T04:33:27;33.75;;;24.95;;
24439;SDS011;12618;54.386;18.394;2022-10-16T04:35:58;32.85;;;24.32;;
24439;SDS011;12618;54.386;18.394;2022-10-16T04:38:29;34.63;;;25.40;;
24439;SDS011;12618;54.386;18.394;2022-10-16T04:41:00;35.55;;;26.02;;
24439;SDS011;12618;54.386;18.394;2022-10-16T04:43:31;32.55;;;24.77;;
24439;SDS011;12618;54.386;18.394;2022-10-16T04:46:01;32.38;;;23.83;;
24439;SDS011;12618;54.386;18.394;2022-10-16T04:48:32;35.30;;;25.45;;
24439;SDS011;12618;54.386;18.394;2022-10-16T04:51:03;37.73;;;27.22;;
24439;SDS011;12618;54.386;18.394;2022-10-16T04:53:33;34.33;;;26.70;;
24439;SDS011;12618;54.386;18.394;2022-10-16T04:56:04;35.43;;;26.25;;
24439;SDS011;12618;54.386;18.394;2022-10-16T05:01:27;38.08;;;28.07;;
24439;SDS011;12618;54.386;18.394;2022-10-16T05:03:58;41.88;;;30.17;;
24439;SDS011;12618;54.386;18.394;2022-10-16T05:06:28;40.65;;;29.50;;
24439;SDS011;12618;54.386;18.394;2022-10-16T05:08:58;40.83;;;29.52;;
24439;SDS011;12618;54.386;18.394;2022-10-16T05:11:29;41.70;;;28.55;;
24439;SDS011;12618;54.386;18.394;2022-10-16T05:14:00;37.40;;;28.80;;
24439;SDS011;12618;54.386;18.394;2022-10-16T05:16:30;40.85;;;29.98;;
24439;SDS011;12618;54.386;18.394;2022-10-16T05:19:01;40.43;;;29.80;;
24439;SDS011;12618;54.386;18.394;2022-10-16T05:21:31;42.15;;;30.12;;
24439;SDS011;12618;54.386;18.394;2022-10-16T05:24:02;40.55;;;29.72;;
24439;SDS011;12618;54.386;18.394;2022-10-16T05:26:32;40.10;;;29.80;;
24439;SDS011;12618;54.386;18.394;2022-10-16T05:29:03;39.38;;;30.37;;
24439;SDS011;12618;54.386;18.394;2022-10-16T05:31:33;44.48;;;31.52;;
24439;SDS011;12618;54.386;18.394;2022-10-16T05:34:04;40.30;;;30.48;;
24439;SDS011;12618;54.386;18.394;2022-10-16T05:36:34;39.85;;;29.65;;
24439;SDS011;12618;54.386;18.394;2022-10-16T05:39:05;39.83;;;30.12;;
24439;SDS011;12618;54.386;18.394;2022-10-16T05:41:35;42.17;;;30.60;;
24439;SDS011;12618;54.386;18.394;2022-10-16T05:44:06;43.00;;;31.77;;
24439;SDS011;12618;54.386;18.394;2022-10-16T05:46:36;41.00;;;31.35;;
24439;SDS011;12618;54.386;18.394;2022-10-16T05:49:07;42.13;;;30.30;;
24439;SDS011;12618;54.386;18.394;2022-10-16T05:51:38;40.83;;;31.40;;
24439;SDS011;12618;54.386;18.394;2022-10-16T05:54:08;45.63;;;33.50;;
24439;SDS011;12618;54.386;18.394;2022-10-16T05:56:39;46.85;;;32.88;;
24439;SDS011;12618;54.386;18.394;2022-10-16T05:59:09;47.23;;;34.75;;
24439;SDS011;12618;54.386;18.394;2022-10-16T06:01:40;48.08;;;34.13;;
24439;SDS011;12618;54.386;18.394;2022-10-16T06:04:10;49.58;;;34.85;;
24439;SDS011;12618;54.386;18.394;2022-10-16T06:06:43;48.33;;;34.13;;
24439;SDS011;12618;54.386;18.394;2022-10-16T06:09:15;53.92;;;36.23;;
24439;SDS011;12618;54.386;18.394;2022-10-16T06:11:45;59.80;;;36.10;;
24439;SDS011;12618;54.386;18.394;2022-10-16T06:14:16;56.88;;;36.63;;
24439;SDS011;12618;54.386;18.394;2022-10-16T06:16:46;59.20;;;37.95;;
24439;SDS011;12618;54.386;18.394;2022-10-16T06:19:16;62.58;;;38.60;;
24439;SDS011;12618;54.386;18.394;2022-10-16T06:21:50;67.12;;;39.20;;
24439;SDS011;12618;54.386;18.394;2022-10-16T06:24:39;71.17;;;39.75;;
24439;SDS011;12618;54.386;18.394;2022-10-16T06:27:09;67.82;;;39.58;;
24439;SDS011;12618;54.386;18.394;2022-10-16T06:29:40;75.12;;;38.25;;
24439;SDS011;12618;54.386;18.394;2022-10-16T06:32:13;55.88;;;35.17;;
24439;SDS011;12618;54.386;18.394;2022-10-16T06:34:44;61.45;;;37.23;;
24439;SDS011;12618;54.386;18.394;2022-10-16T06:37:15;63.65;;;38.25;;
24439;SDS011;12618;54.386;18.394;2022-10-16T06:39:46;62.73;;;36.70;;
24439;SDS011;12618;54.386;18.394;2022-10-16T06:42:16;56.80;;;35.20;;
24439;SDS011;12618;54.386;18.394;2022-10-16T06:44:47;59.42;;;35.25;;
24439;SDS011;12618;54.386;18.394;2022-10-16T06:47:17;60.67;;;36.37;;
24439;SDS011;12618;54.386;18.394;2022-10-16T06:49:48;60.17;;;35.75;;
24439;SDS011;12618;54.386;18.394;2022-10-16T06:52:18;55.73;;;34.55;;
24439;SDS011;12618;54.386;18.394;2022-10-16T06:54:49;59.85;;;35.52;;
24439;SDS011;12618;54.386;18.394;2022-10-16T06:57:19;57.60;;;34.65;;
24439;SDS011;12618;54.386;18.394;2022-10-16T06:59:50;58.45;;;34.33;;
24439;SDS011;12618;54.386;18.394;2022-10-16T07:02:20;49.50;;;32.28;;
24439;SDS011;12618;54.386;18.394;2022-10-16T07:04:51;41.00;;;26.93;;
24439;SDS011;12618;54.386;18.394;2022-10-16T07:07:21;47.60;;;28.85;;
24439;SDS011;12618;54.386;18.394;2022-10-16T07:09:53;46.35;;;28.42;;
24439;SDS011;12618;54.386;18.394;2022-10-16T07:12:24;39.80;;;26.50;;
24439;SDS011;12618;54.386;18.394;2022-10-16T07:14:54;40.23;;;27.20;;
24439;SDS011;12618;54.386;18.394;2022-10-16T07:17:25;41.08;;;27.50;;
24439;SDS011;12618;54.386;18.394;2022-10-16T07:19:56;41.73;;;26.70;;
24439;SDS011;12618;54.386;18.394;2022-10-16T07:22:27;39.92;;;27.32;;
24439;SDS011;12618;54.386;18.394;2022-10-16T07:24:58;43.17;;;26.80;;
24439;SDS011;12618;54.386;18.394;2022-10-16T07:27:31;41.33;;;28.50;;
24439;SDS011;12618;54.386;18.394;2022-10-16T07:30:01;45.98;;;29.07;;
24439;SDS011;12618;54.386;18.394;2022-10-16T07:32:31;46.05;;;30.25;;
24439;SDS011;12618;54.386;18.394;2022-10-16T07:35:02;47.53;;;30.20;;
24439;SDS011;12618;54.386;18.394;2022-10-16T07:37:32;49.10;;;30.57;;
24439;SDS011;12618;54.386;18.394;2022-10-16T07:40:03;57.83;;;35.20;;
24439;SDS011;12618;54.386;18.394;2022-10-16T07:42:34;54.05;;;34.33;;
24439;SDS011;12618;54.386;18.394;2022-10-16T07:45:04;57.03;;;35.43;;
24439;SDS011;12618;54.386;18.394;2022-10-16T07:47:35;60.60;;;37.00;;
24439;SDS011;12618;54.386;18.394;2022-10-16T07:50:07;58.98;;;36.35;;
24439;SDS011;12618;54.386;18.394;2022-10-16T07:52:37;59.65;;;36.40;;
24439;SDS011;12618;54.386;18.394;2022-10-16T07:55:08;62.25;;;38.50;;
24439;SDS011;12618;54.386;18.394;2022-10-16T07:57:39;63.28;;;37.50;;
24439;SDS011;12618;54.386;18.394;2022-10-16T08:00:10;56.40;;;35.00;;
24439;SDS011;12618;54.386;18.394;2022-10-16T08:02:43;60.43;;;35.75;;
24439;SDS011;12618;54.386;18.394;2022-10-16T08:05:13;62.78;;;36.20;;
24439;SDS011;12618;54.386;18.394;2022-10-16T08:07:48;58.70;;;36.23;;
24439;SDS011;12618;54.386;18.394;2022-10-16T08:10:17;57.08;;;34.98;;
24439;SDS011;12618;54.386;18.394;2022-10-16T08:12:48;60.35;;;35.35;;
24439;SDS011;12618;54.386;18.394;2022-10-16T08:15:21;59.10;;;35.55;;
24439;SDS011;12618;54.386;18.394;2022-10-16T08:17:58;57.65;;;36.80;;
24439;SDS011;12618;54.386;18.394;2022-10-16T08:20:30;57.45;;;35.52;;
24439;SDS011;12618;54.386;18.394;2022-10-16T08:23:01;57.62;;;35.38;;
24439;SDS011;12618;54.386;18.394;2022-10-16T08:25:36;54.03;;;34.78;;
24439;SDS011;12618;54.386;18.394;2022-10-16T08:28:08;51.00;;;33.73;;
24439;SDS011;12618;54.386;18.394;2022-10-16T08:30:40;56.88;;;35.43;;
24439;SDS011;12618;54.386;18.394;2022-10-16T08:33:10;57.98;;;34.13;;
24439;SDS011;12618;54.386;18.394;2022-10-16T08:35:41;57.35;;;35.13;;
24439;SDS011;12618;54.386;18.394;2022-10-16T08:38:12;54.70;;;34.53;;
24439;SDS011;12618;54.386;18.394;2022-10-16T08:40:42;54.45;;;34.73;;
24439;SDS011;12618;54.386;18.394;2022-10-16T08:51:03;54.38;;;32.80;;
24439;SDS011;12618;54.386;18.394;2022-10-16T08:53:40;55.63;;;35.13;;
24439;SDS011;12618;54.386;18.394;2022-10-16T08:56:07;52.23;;;33.90;;
24439;SDS011;12618;54.386;18.394;2022-10-16T08:58:37;52.25;;;33.18;;
24439;SDS011;12618;54.386;18.394;2022-10-16T09:01:11;50.52;;;31.37;;
24439;SDS011;12618;54.386;18.394;2022-10-16T09:03:47;52.00;;;33.58;;
24439;SDS011;12618;54.386;18.394;2022-10-16T09:11:38;46.35;;;31.35;;
24439;SDS011;12618;54.386;18.394;2022-10-16T09:17:00;50.28;;;32.17;;
24439;SDS011;12618;54.386;18.394;2022-10-16T09:19:40;47.50;;;31.23;;
24439;SDS011;12618;54.386;18.394;2022-10-16T09:22:12;48.48;;;32.58;;
24439;SDS011;12618;54.386;18.394;2022-10-16T09:24:42;46.50;;;31.82;;
24439;SDS011;12618;54.386;18.394;2022-10-16T09:27:13;42.98;;;29.92;;
24439;SDS011;12618;54.386;18.394;2022-10-16T09:29:44;43.35;;;29.92;;
24439;SDS011;12618;54.386;18.394;2022-10-16T09:32:16;47.23;;;30.40;;
24439;SDS011;12618;54.386;18.394;2022-10-16T09:34:48;43.00;;;29.57;;
24439;SDS011;12618;54.386;18.394;2022-10-16T09:37:20;49.33;;;32.05;;
24439;SDS011;12618;54.386;18.394;2022-10-16T09:39:52;47.03;;;30.37;;
24439;SDS011;12618;54.386;18.394;2022-10-16T09:42:32;45.17;;;30.90;;
24439;SDS011;12618;54.386;18.394;2022-10-16T09:44:56;46.70;;;31.90;;
24439;SDS011;12618;54.386;18.394;2022-10-16T09:47:27;46.33;;;31.82;;
24439;SDS011;12618;54.386;18.394;2022-10-16T09:49:59;47.53;;;32.03;;
24439;SDS011;12618;54.386;18.394;2022-10-16T09:52:32;47.67;;;31.77;;
24439;SDS011;12618;54.386;18.394;2022-10-16T09:55:13;48.83;;;32.80;;
24439;SDS011;12618;54.386;18.394;2022-10-16T09:57:36;46.77;;;30.52;;
24439;SDS011;12618;54.386;18.394;2022-10-16T10:00:08;49.45;;;32.08;;
24439;SDS011;12618;54.386;18.394;2022-10-16T10:02:38;46.95;;;31.95;;
24439;SDS011;12618;54.386;18.394;2022-10-16T10:05:20;48.70;;;32.08;;
24439;SDS011;12618;54.386;18.394;2022-10-16T10:07:58;47.73;;;32.00;;
24439;SDS011;12618;54.386;18.394;2022-10-16T10:10:30;49.93;;;33.67;;
24439;SDS011;12618;54.386;18.394;2022-10-16T10:13:01;50.67;;;33.55;;
24439;SDS011;12618;54.386;18.394;2022-10-16T10:15:33;49.88;;;32.05;;
24439;SDS011;12618;54.386;18.394;2022-10-16T10:18:15;56.05;;;35.52;;
24439;SDS011;12618;54.386;18.394;2022-10-16T10:20:36;65.15;;;42.95;;
24439;SDS011;12618;54.386;18.394;2022-10-16T10:23:23;50.30;;;35.63;;
24439;SDS011;12618;54.386;18.394;2022-10-16T10:28:33;56.70;;;39.73;;
24439;SDS011;12618;54.386;18.394;2022-10-16T10:33:48;52.38;;;36.03;;
24439;SDS011;12618;54.386;18.394;2022-10-16T10:36:38;47.45;;;34.20;;
24439;SDS011;12618;54.386;18.394;2022-10-16T10:50:04;46.40;;;32.55;;
24439;SDS011;12618;54.386;18.394;2022-10-16T11:06:06;31.60;;;25.43;;
24439;SDS011;12618;54.386;18.394;2022-10-16T11:08:39;32.28;;;25.52;;
24439;SDS011;12618;54.386;18.394;2022-10-16T11:16:26;30.57;;;24.30;;
24439;SDS011;12618;54.386;18.394;2022-10-16T11:21:36;28.02;;;23.25;;
24439;SDS011;12618;54.386;18.394;2022-10-16T11:24:14;22.45;;;19.82;;
24439;SDS011;12618;54.386;18.394;2022-10-16T11:26:39;24.90;;;20.30;;
24439;SDS011;12618;54.386;18.394;2022-10-16T11:29:13;35.20;;;30.02;;
24439;SDS011;12618;54.386;18.394;2022-10-16T11:31:48;22.77;;;19.77;;
24439;SDS011;12618;54.386;18.394;2022-10-16T11:34:27;21.12;;;18.05;;
24439;SDS011;12618;54.386;18.394;2022-10-16T11:37:02;19.77;;;17.62;;
24439;SDS011;12618;54.386;18.394;2022-10-16T11:39:32;20.77;;;18.35;;
24439;SDS011;12618;54.386;18.394;2022-10-16T11:42:05;24.30;;;17.55;;
24439;SDS011;12618;54.386;18.394;2022-10-16T11:55:35;18.98;;;15.95;;
24439;SDS011;12618;54.386;18.394;2022-10-16T12:08:49;16.00;;;13.55;;
24439;SDS011;12618;54.386;18.394;2022-10-16T12:14:05;14.50;;;12.98;;
24439;SDS011;12618;54.386;18.394;2022-10-16T12:19:16;17.37;;;14.93;;
24439;SDS011;12618;54.386;18.394;2022-10-16T12:21:47;16.87;;;14.75;;
24439;SDS011;12618;54.386;18.394;2022-10-16T12:24:29;19.77;;;15.18;;
24439;SDS011;12618;54.386;18.394;2022-10-16T12:26:50;18.52;;;14.83;;
24439;SDS011;12618;54.386;18.394;2022-10-16T12:32:27;12.03;;;10.82;;
24439;SDS011;12618;54.386;18.394;2022-10-16T12:34:57;11.80;;;10.50;;
24439;SDS011;12618;54.386;18.394;2022-10-16T12:37:29;14.00;;;12.50;;
24439;SDS011;12618;54.386;18.394;2022-10-16T12:40:10;12.00;;;9.98;;
24439;SDS011;12618;54.386;18.394;2022-10-16T12:42:33;10.55;;;9.45;;
24439;SDS011;12618;54.386;18.394;2022-10-16T12:47:55;14.40;;;10.43;;
24439;SDS011;12618;54.386;18.394;2022-10-16T12:50:39;11.38;;;10.15;;
24439;SDS011;12618;54.386;18.394;2022-10-16T12:53:23;10.58;;;9.58;;
24439;SDS011;12618;54.386;18.394;2022-10-16T12:56:00;10.08;;;8.55;;
24439;SDS011;12618;54.386;18.394;2022-10-16T13:03:56;10.43;;;9.28;;
24439;SDS011;12618;54.386;18.394;2022-10-16T13:12:01;9.60;;;8.70;;
24439;SDS011;12618;54.386;18.394;2022-10-16T13:17:16;9.85;;;8.78;;
24439;SDS011;12618;54.386;18.394;2022-10-16T13:25:02;11.25;;;10.10;;
24439;SDS011;12618;54.386;18.394;2022-10-16T13:27:43;11.85;;;10.60;;
24439;SDS011;12618;54.386;18.394;2022-10-16T13:30:14;10.53;;;9.53;;
24439;SDS011;12618;54.386;18.394;2022-10-16T13:32:45;11.38;;;9.93;;
24439;SDS011;12618;54.386;18.394;2022-10-16T13:35:24;12.60;;;10.75;;
24439;SDS011;12618;54.386;18.394;2022-10-16T13:38:03;13.48;;;11.65;;
24439;SDS011;12618;54.386;18.394;2022-10-16T13:40:25;13.10;;;10.85;;
24439;SDS011;12618;54.386;18.394;2022-10-16T13:42:55;11.78;;;10.05;;
24439;SDS011;12618;54.386;18.394;2022-10-16T13:45:26;17.35;;;12.18;;
24439;SDS011;12618;54.386;18.394;2022-10-16T13:48:03;13.05;;;10.78;;
24439;SDS011;12618;54.386;18.394;2022-10-16T13:50:34;15.00;;;12.80;;
24439;SDS011;12618;54.386;18.394;2022-10-16T13:53:10;13.50;;;11.70;;
24439;SDS011;12618;54.386;18.394;2022-10-16T13:55:37;14.03;;;12.40;;
24439;SDS011;12618;54.386;18.394;2022-10-16T13:58:08;16.35;;;12.07;;
24439;SDS011;12618;54.386;18.394;2022-10-16T14:00:39;13.78;;;11.73;;
24439;SDS011;12618;54.386;18.394;2022-10-16T14:03:13;12.90;;;11.50;;
24439;SDS011;12618;54.386;18.394;2022-10-16T14:05:53;14.20;;;11.83;;
24439;SDS011;12618;54.386;18.394;2022-10-16T14:08:20;13.20;;;11.60;;
24439;SDS011;12618;54.386;18.394;2022-10-16T14:10:52;16.90;;;13.62;;
24439;SDS011;12618;54.386;18.394;2022-10-16T14:13:29;16.82;;;15.05;;
24439;SDS011;12618;54.386;18.394;2022-10-16T14:15:56;18.50;;;16.55;;
24439;SDS011;12618;54.386;18.394;2022-10-16T14:18:28;22.62;;;17.67;;
24439;SDS011;12618;54.386;18.394;2022-10-16T14:21:03;19.32;;;17.32;;
24439;SDS011;12618;54.386;18.394;2022-10-16T14:23:33;17.12;;;15.13;;
24439;SDS011;12618;54.386;18.394;2022-10-16T14:28:39;17.23;;;15.25;;
24439;SDS011;12618;54.386;18.394;2022-10-16T14:31:23;17.45;;;15.40;;
24439;SDS011;12618;54.386;18.394;2022-10-16T14:33:53;16.82;;;12.50;;
24439;SDS011;12618;54.386;18.394;2022-10-16T14:36:23;17.67;;;15.88;;
24439;SDS011;12618;54.386;18.394;2022-10-16T14:41:27;18.50;;;16.15;;
24439;SDS011;12618;54.386;18.394;2022-10-16T14:44:03;24.07;;;20.57;;
24439;SDS011;12618;54.386;18.394;2022-10-16T14:46:35;22.00;;;19.60;;
24439;SDS011;12618;54.386;18.394;2022-10-16T14:51:42;20.48;;;16.20;;
24439;SDS011;12618;54.386;18.394;2022-10-16T14:54:15;16.67;;;14.43;;
24439;SDS011;12618;54.386;18.394;2022-10-16T14:56:53;18.48;;;16.05;;
24439;SDS011;12618;54.386;18.394;2022-10-16T14:59:29;20.80;;;16.23;;
24439;SDS011;12618;54.386;18.394;2022-10-16T15:02:16;26.17;;;18.23;;
24439;SDS011;12618;54.386;18.394;2022-10-16T15:04:32;22.50;;;18.12;;
24439;SDS011;12618;54.386;18.394;2022-10-16T15:07:02;21.55;;;18.52;;
24439;SDS011;12618;54.386;18.394;2022-10-16T15:09:33;24.10;;;19.77;;
24439;SDS011;12618;54.386;18.394;2022-10-16T15:12:03;22.13;;;19.20;;
24439;SDS011;12618;54.386;18.394;2022-10-16T15:14:34;22.25;;;19.73;;
24439;SDS011;12618;54.386;18.394;2022-10-16T15:17:04;23.90;;;19.27;;
24439;SDS011;12618;54.386;18.394;2022-10-16T15:19:35;23.00;;;19.17;;
24439;SDS011;12618;54.386;18.394;2022-10-16T15:22:05;22.42;;;18.77;;
24439;SDS011;12618;54.386;18.394;2022-10-16T15:24:40;21.85;;;19.42;;
24439;SDS011;12618;54.386;18.394;2022-10-16T15:27:08;27.30;;;21.48;;
24439;SDS011;12618;54.386;18.394;2022-10-16T15:29:39;25.50;;;20.92;;
24439;SDS011;12618;54.386;18.394;2022-10-16T15:32:10;24.07;;;19.80;;
24439;SDS011;12618;54.386;18.394;2022-10-16T15:34:41;23.65;;;19.30;;
24439;SDS011;12618;54.386;18.394;2022-10-16T15:37:12;21.57;;;17.98;;
24439;SDS011;12618;54.386;18.394;2022-10-16T15:39:43;21.20;;;18.50;;
24439;SDS011;12618;54.386;18.394;2022-10-16T15:42:14;24.72;;;19.52;;
24439;SDS011;12618;54.386;18.394;2022-10-16T15:44:44;21.97;;;18.67;;
24439;SDS011;12618;54.386;18.394;2022-10-16T15:47:15;23.30;;;19.10;;
24439;SDS011;12618;54.386;18.394;2022-10-16T15:49:45;23.38;;;18.85;;
24439;SDS011;12618;54.386;18.394;2022-10-16T15:52:16;21.17;;;18.87;;
24439;SDS011;12618;54.386;18.394;2022-10-16T15:54:46;23.45;;;20.08;;
24439;SDS011;12618;54.386;18.394;2022-10-16T15:57:17;24.92;;;20.72;;
24439;SDS011;12618;54.386;18.394;2022-10-16T15:59:47;24.85;;;19.92;;
24439;SDS011;12618;54.386;18.394;2022-10-16T16:02:18;27.95;;;22.20;;
24439;SDS011;12618;54.386;18.394;2022-10-16T16:04:48;26.95;;;22.62;;
24439;SDS011;12618;54.386;18.394;2022-10-16T16:07:23;31.65;;;22.87;;
24439;SDS011;12618;54.386;18.394;2022-10-16T16:09:51;36.95;;;27.48;;
24439;SDS011;12618;54.386;18.394;2022-10-16T16:12:22;38.80;;;27.87;;
24439;SDS011;12618;54.386;18.394;2022-10-16T16:14:52;33.92;;;26.15;;
24439;SDS011;12618;54.386;18.394;2022-10-16T16:17:23;35.17;;;27.73;;
24439;SDS011;12618;54.386;18.394;2022-10-16T16:19:54;36.93;;;28.90;;
24439;SDS011;12618;54.386;18.394;2022-10-16T16:22:25;43.93;;;32.07;;
24439;SDS011;12618;54.386;18.394;2022-10-16T16:24:56;41.77;;;30.65;;
24439;SDS011;12618;54.386;18.394;2022-10-16T16:27:26;42.75;;;33.53;;
24439;SDS011;12618;54.386;18.394;2022-10-16T16:29:59;40.40;;;31.90;;
24439;SDS011;12618;54.386;18.394;2022-10-16T16:32:29;42.60;;;33.53;;
24439;SDS011;12618;54.386;18.394;2022-10-16T16:35:00;50.63;;;37.28;;
24439;SDS011;12618;54.386;18.394;2022-10-16T16:37:32;51.45;;;39.65;;
24439;SDS011;12618;54.386;18.394;2022-10-16T16:40:03;52.95;;;42.17;;
24439;SDS011;12618;54.386;18.394;2022-10-16T16:42:33;53.40;;;42.33;;
24439;SDS011;12618;54.386;18.394;2022-10-16T16:45:04;47.67;;;39.23;;